sensor_id;sensor_type;location;lat;lon;timestamp;pressure;altitude;pressure_sealevel;temperature;humidity
5296;BME280;2670;42.720;23.336;2023-06-14T00:01:49;-18091.72;;;-145.34;100.00
5296;BME280;2670;42.720;23.336;2023-06-14T00:04:16;-18091.72;;;-145.34;100.00
5296;BME280;2670;42.720;23.336;2023-06-14T00:06:44;-18091.72;;;-145.34;100.00
5296;BME280;2670;42.720;23.336;2023-06-14T00:09:11;-18091.72;;;-145.34;100.00
5296;BME280;2670;42.720;23.336;2023-06-14T00:11:40;-18091.72;;;-145.34;100.00
5296;BME280;2670;42.720;23.336;2023-06-14T00:14:07;-18091.72;;;-145.34;100.00
5296;BME280;2670;42.720;23.336;2023-06-14T00:16:34;-18091.72;;;-145.34;100.00
5296;BME280;2670;42.720;23.336;2023-06-14T00:19:02;-18091.72;;;-145.34;100.00
5296;BME280;2670;42.720;23.336;2023-06-14T00:21:29;-18091.72;;;-145.34;100.00
5296;BME280;2670;42.720;23.336;2023-06-14T00:23:57;-18091.72;;;-145.34;100.00
5296;BME280;2670;42.720;23.336;2023-06-14T00:26:24;-18091.72;;;-145.34;100.00
5296;BME280;2670;42.720;23.336;2023-06-14T00:28:53;-18091.72;;;-145.34;100.00
5296;BME280;2670;42.720;23.336;2023-06-14T00:31:20;-18091.72;;;-145.34;100.00
5296;BME280;2670;42.720;23.336;2023-06-14T00:33:47;-18091.72;;;-145.34;100.00
5296;BME280;2670;42.720;23.336;2023-06-14T00:36:13;-18091.72;;;-145.34;100.00
5296;BME280;2670;42.720;23.336;2023-06-14T00:38:40;-18091.72;;;-145.34;100.00
5296;BME280;2670;42.720;23.336;2023-06-14T00:41:07;-18091.72;;;-145.34;100.00
5296;BME280;2670;42.720;23.336;2023-06-14T00:43:34;-18091.72;;;-145.34;100.00
5296;BME280;2670;42.720;23.336;2023-06-14T00:46:02;-18091.72;;;-145.34;100.00
5296;BME280;2670;42.720;23.336;2023-06-14T00:48:29;-18091.72;;;-145.34;100.00
5296;BME280;2670;42.720;23.336;2023-06-14T00:50:57;-18091.72;;;-145.34;100.00
5296;BME280;2670;42.720;23.336;2023-06-14T00:53:26;-18091.72;;;-145.34;100.00
5296;BME280;2670;42.720;23.336;2023-06-14T00:55:53;-18091.72;;;-145.34;100.00
5296;BME280;2670;42.720;23.336;2023-06-14T00:58:21;-18091.72;;;-145.34;100.00
5296;BME280;2670;42.720;23.336;2023-06-14T01:00:49;-18091.72;;;-145.34;100.00
5296;BME280;2670;42.720;23.336;2023-06-14T01:03:17;-18091.72;;;-145.34;100.00
5296;BME280;2670;42.720;23.336;2023-06-14T01:05:47;-18091.72;;;-145.34;100.00
5296;BME280;2670;42.720;23.336;2023-06-14T01:08:22;-18091.72;;;-145.34;100.00
5296;BME280;2670;42.720;23.336;2023-06-14T01:10:55;-18091.72;;;-145.34;100.00
5296;BME280;2670;42.720;23.336;2023-06-14T01:13:27;-18091.72;;;-145.34;100.00
5296;BME280;2670;42.720;23.336;2023-06-14T01:15:55;-18091.72;;;-145.34;100.00
5296;BME280;2670;42.720;23.336;2023-06-14T01:18:24;-18091.72;;;-145.34;100.00
5296;BME280;2670;42.720;23.336;2023-06-14T01:20:51;-18091.72;;;-145.34;100.00
5296;BME280;2670;42.720;23.336;2023-06-14T01:23:22;-18091.72;;;-145.34;100.00
5296;BME280;2670;42.720;23.336;2023-06-14T01:25:50;-18091.72;;;-145.34;100.00
5296;BME280;2670;42.720;23.336;2023-06-14T01:28:19;-18091.72;;;-145.34;100.00
5296;BME280;2670;42.720;23.336;2023-06-14T01:30:49;-18091.72;;;-145.34;100.00
5296;BME280;2670;42.720;23.336;2023-06-14T01:33:19;-18091.72;;;-145.34;100.00
5296;BME280;2670;42.720;23.336;2023-06-14T01:35:48;-18091.72;;;-145.34;100.00
5296;BME280;2670;42.720;23.336;2023-06-14T01:38:17;-18091.72;;;-145.34;100.00
5296;BME280;2670;42.720;23.336;2023-06-14T01:40:46;-18091.72;;;-145.34;100.00
5296;BME280;2670;42.720;23.336;2023-06-14T01:43:15;-18091.72;;;-145.34;100.00
5296;BME280;2670;42.720;23.336;2023-06-14T01:45:42;-18091.72;;;-145.34;100.00
5296;BME280;2670;42.720;23.336;2023-06-14T01:48:11;-18091.72;;;-145.34;100.00
5296;BME280;2670;42.720;23.336;2023-06-14T01:50:38;-18091.72;;;-145.34;100.00
5296;BME280;2670;42.720;23.336;2023-06-14T01:53:07;-18091.72;;;-145.34;100.00
5296;BME280;2670;42.720;23.336;2023-06-14T01:55:34;-18091.72;;;-145.34;100.00
5296;BME280;2670;42.720;23.336;2023-06-14T01:58:04;-18091.72;;;-145.34;100.00
5296;BME280;2670;42.720;23.336;2023-06-14T02:00:31;-18091.72;;;-145.34;100.00
5296;BME280;2670;42.720;23.336;2023-06-14T02:02:58;-18091.72;;;-145.34;100.00
5296;BME280;2670;42.720;23.336;2023-06-14T02:05:25;-18091.72;;;-145.34;100.00
5296;BME280;2670;42.720;23.336;2023-06-14T02:07:52;-18091.72;;;-145.34;100.00
5296;BME280;2670;42.720;23.336;2023-06-14T02:10:19;-18091.72;;;-145.34;100.00
5296;BME280;2670;42.720;23.336;2023-06-14T02:12:46;-18091.72;;;-145.34;100.00
5296;BME280;2670;42.720;23.336;2023-06-14T02:15:15;-18091.72;;;-145.34;100.00
5296;BME280;2670;42.720;23.336;2023-06-14T02:17:43;-18091.72;;;-145.34;100.00
5296;BME280;2670;42.720;23.336;2023-06-14T02:20:11;-18091.72;;;-145.34;100.00
5296;BME280;2670;42.720;23.336;2023-06-14T02:22:38;-18091.72;;;-145.34;100.00
5296;BME280;2670;42.720;23.336;2023-06-14T02:25:05;-18091.72;;;-145.34;100.00
5296;BME280;2670;42.720;23.336;2023-06-14T02:27:32;-18091.72;;;-145.34;100.00
5296;BME280;2670;42.720;23.336;2023-06-14T02:29:59;-18091.72;;;-145.34;100.00
5296;BME280;2670;42.720;23.336;2023-06-14T02:32:27;-18091.72;;;-145.34;100.00
5296;BME280;2670;42.720;23.336;2023-06-14T02:34:54;-18091.72;;;-145.34;100.00
5296;BME280;2670;42.720;23.336;2023-06-14T02:37:21;-18091.72;;;-145.34;100.00
5296;BME280;2670;42.720;23.336;2023-06-14T02:39:48;-18091.72;;;-145.34;100.00
5296;BME280;2670;42.720;23.336;2023-06-14T02:42:14;-18091.72;;;-145.34;100.00
5296;BME280;2670;42.720;23.336;2023-06-14T02:44:41;-18091.72;;;-145.34;100.00
5296;BME280;2670;42.720;23.336;2023-06-14T02:47:08;-18091.72;;;-145.34;100.00
5296;BME280;2670;42.720;23.336;2023-06-14T02:49:36;-18091.72;;;-145.34;100.00
5296;BME280;2670;42.720;23.336;2023-06-14T02:52:04;-18091.72;;;-145.34;100.00
5296;BME280;2670;42.720;23.336;2023-06-14T02:54:31;-18091.72;;;-145.34;100.00
5296;BME280;2670;42.720;23.336;2023-06-14T02:56:58;-18091.72;;;-145.34;100.00
5296;BME280;2670;42.720;23.336;2023-06-14T02:59:25;-18091.72;;;-145.34;100.00
5296;BME280;2670;42.720;23.336;2023-06-14T03:01:52;-18091.72;;;-145.34;100.00
5296;BME280;2670;42.720;23.336;2023-06-14T03:04:18;-18091.72;;;-145.34;100.00
5296;BME280;2670;42.720;23.336;2023-06-14T03:06:47;-18091.72;;;-145.34;100.00
5296;BME280;2670;42.720;23.336;2023-06-14T03:09:15;-18091.72;;;-145.34;100.00
5296;BME280;2670;42.720;23.336;2023-06-14T03:11:42;-18091.72;;;-145.34;100.00
5296;BME280;2670;42.720;23.336;2023-06-14T03:14:09;-18091.72;;;-145.34;100.00
5296;BME280;2670;42.720;23.336;2023-06-14T03:16:36;-18091.72;;;-145.34;100.00
5296;BME280;2670;42.720;23.336;2023-06-14T03:19:03;-18091.72;;;-145.34;100.00
5296;BME280;2670;42.720;23.336;2023-06-14T03:21:30;-18091.72;;;-145.34;100.00
5296;BME280;2670;42.720;23.336;2023-06-14T03:23:59;-18091.72;;;-145.34;100.00
5296;BME280;2670;42.720;23.336;2023-06-14T03:26:26;-18091.72;;;-145.34;100.00
5296;BME280;2670;42.720;23.336;2023-06-14T03:28:52;-18091.72;;;-145.34;100.00
5296;BME280;2670;42.720;23.336;2023-06-14T03:31:19;-18091.72;;;-145.34;100.00
5296;BME280;2670;42.720;23.336;2023-06-14T03:33:46;-18091.72;;;-145.34;100.00
5296;BME280;2670;42.720;23.336;2023-06-14T03:36:13;-18091.72;;;-145.34;100.00
5296;BME280;2670;42.720;23.336;2023-06-14T03:38:40;-18091.72;;;-145.34;100.00
5296;BME280;2670;42.720;23.336;2023-06-14T03:41:08;-18091.72;;;-145.34;100.00
5296;BME280;2670;42.720;23.336;2023-06-14T03:43:35;-18091.72;;;-145.34;100.00
5296;BME280;2670;42.720;23.336;2023-06-14T03:46:01;-18091.72;;;-145.34;100.00
5296;BME280;2670;42.720;23.336;2023-06-14T03:48:28;-18091.72;;;-145.34;100.00
5296;BME280;2670;42.720;23.336;2023-06-14T03:50:55;-18091.72;;;-145.34;100.00
5296;BME280;2670;42.720;23.336;2023-06-14T03:53:22;-18091.72;;;-145.34;100.00
5296;BME280;2670;42.720;23.336;2023-06-14T03:55:49;-18091.72;;;-145.34;100.00
5296;BME280;2670;42.720;23.336;2023-06-14T03:58:19;-18091.72;;;-145.34;100.00
5296;BME280;2670;42.720;23.336;2023-06-14T04:00:46;-18091.72;;;-145.34;100.00
5296;BME280;2670;42.720;23.336;2023-06-14T04:03:13;-18091.72;;;-145.34;100.00
5296;BME280;2670;42.720;23.336;2023-06-14T04:05:40;-18091.72;;;-145.34;100.00
5296;BME280;2670;42.720;23.336;2023-06-14T04:08:07;-18091.72;;;-145.34;100.00
5296;BME280;2670;42.720;23.336;2023-06-14T04:10:35;-18091.72;;;-145.34;100.00
5296;BME280;2670;42.720;23.336;2023-06-14T04:13:02;-18091.72;;;-145.34;100.00
5296;BME280;2670;42.720;23.336;2023-06-14T04:15:31;-18091.72;;;-145.34;100.00
5296;BME280;2670;42.720;23.336;2023-06-14T04:17:58;-18091.72;;;-145.34;100.00
5296;BME280;2670;42.720;23.336;2023-06-14T04:20:25;-18091.72;;;-145.34;100.00
5296;BME280;2670;42.720;23.336;2023-06-14T04:22:52;-18091.72;;;-145.34;100.00
5296;BME280;2670;42.720;23.336;2023-06-14T04:25:19;-18091.72;;;-145.34;100.00
5296;BME280;2670;42.720;23.336;2023-06-14T04:27:47;-18091.72;;;-145.34;100.00
5296;BME280;2670;42.720;23.336;2023-06-14T04:30:15;-18091.72;;;-145.34;100.00
5296;BME280;2670;42.720;23.336;2023-06-14T04:32:43;-18091.72;;;-145.34;100.00
5296;BME280;2670;42.720;23.336;2023-06-14T04:35:11;-18091.72;;;-145.34;100.00
5296;BME280;2670;42.720;23.336;2023-06-14T04:37:38;-18091.72;;;-145.34;100.00
5296;BME280;2670;42.720;23.336;2023-06-14T04:40:09;-18091.72;;;-145.34;100.00
5296;BME280;2670;42.720;23.336;2023-06-14T04:42:36;-18091.72;;;-145.34;100.00
5296;BME280;2670;42.720;23.336;2023-06-14T04:45:04;-18091.72;;;-145.34;100.00
5296;BME280;2670;42.720;23.336;2023-06-14T04:47:32;-18091.72;;;-145.34;100.00
5296;BME280;2670;42.720;23.336;2023-06-14T04:50:01;-18091.72;;;-145.34;100.00
5296;BME280;2670;42.720;23.336;2023-06-14T04:52:29;-18091.72;;;-145.34;100.00
5296;BME280;2670;42.720;23.336;2023-06-14T04:54:57;-18091.72;;;-145.34;100.00
5296;BME280;2670;42.720;23.336;2023-06-14T04:57:24;-18091.72;;;-145.34;100.00
5296;BME280;2670;42.720;23.336;2023-06-14T04:59:51;-18091.72;;;-145.34;100.00
5296;BME280;2670;42.720;23.336;2023-06-14T05:02:20;-18091.72;;;-145.34;100.00
5296;BME280;2670;42.720;23.336;2023-06-14T05:04:47;-18091.72;;;-145.34;100.00
5296;BME280;2670;42.720;23.336;2023-06-14T05:07:15;-18091.72;;;-145.34;100.00
5296;BME280;2670;42.720;23.336;2023-06-14T05:09:42;-18091.72;;;-145.34;100.00
5296;BME280;2670;42.720;23.336;2023-06-14T05:12:09;-18091.72;;;-145.34;100.00
5296;BME280;2670;42.720;23.336;2023-06-14T05:14:36;-18091.72;;;-145.34;100.00
5296;BME280;2670;42.720;23.336;2023-06-14T05:17:03;-18091.72;;;-145.34;100.00
5296;BME280;2670;42.720;23.336;2023-06-14T05:19:31;-18091.72;;;-145.34;100.00
5296;BME280;2670;42.720;23.336;2023-06-14T05:21:57;-18091.72;;;-145.34;100.00
5296;BME280;2670;42.720;23.336;2023-06-14T05:24:25;-18091.72;;;-145.34;100.00
5296;BME280;2670;42.720;23.336;2023-06-14T05:26:54;-18091.72;;;-145.34;100.00
5296;BME280;2670;42.720;23.336;2023-06-14T05:29:20;-18091.72;;;-145.34;100.00
5296;BME280;2670;42.720;23.336;2023-06-14T05:31:47;-18091.72;;;-145.34;100.00
5296;BME280;2670;42.720;23.336;2023-06-14T05:34:14;-18091.72;;;-145.34;100.00
5296;BME280;2670;42.720;23.336;2023-06-14T05:36:41;-18091.72;;;-145.34;100.00
5296;BME280;2670;42.720;23.336;2023-06-14T05:39:09;-18091.72;;;-145.34;100.00
5296;BME280;2670;42.720;23.336;2023-06-14T05:41:37;-18091.72;;;-145.34;100.00
5296;BME280;2670;42.720;23.336;2023-06-14T05:44:04;-18091.72;;;-145.34;100.00
5296;BME280;2670;42.720;23.336;2023-06-14T05:46:31;-18091.72;;;-145.34;100.00
5296;BME280;2670;42.720;23.336;2023-06-14T05:48:57;-18091.72;;;-145.34;100.00
5296;BME280;2670;42.720;23.336;2023-06-14T05:51:24;-18091.72;;;-145.34;100.00
5296;BME280;2670;42.720;23.336;2023-06-14T05:53:52;-18091.72;;;-145.34;100.00
5296;BME280;2670;42.720;23.336;2023-06-14T05:56:19;-18091.72;;;-145.34;100.00
5296;BME280;2670;42.720;23.336;2023-06-14T05:58:49;-18091.72;;;-145.34;100.00
5296;BME280;2670;42.720;23.336;2023-06-14T06:01:15;-18091.72;;;-145.34;100.00
5296;BME280;2670;42.720;23.336;2023-06-14T06:03:42;-18091.72;;;-145.34;100.00
5296;BME280;2670;42.720;23.336;2023-06-14T06:06:11;-18091.72;;;-145.34;100.00
5296;BME280;2670;42.720;23.336;2023-06-14T06:08:38;-18091.72;;;-145.34;100.00
5296;BME280;2670;42.720;23.336;2023-06-14T06:11:06;-18091.72;;;-145.34;100.00
5296;BME280;2670;42.720;23.336;2023-06-14T06:13:32;-18091.72;;;-145.34;100.00
5296;BME280;2670;42.720;23.336;2023-06-14T06:16:02;-18091.72;;;-145.34;100.00
5296;BME280;2670;42.720;23.336;2023-06-14T06:18:28;-18091.72;;;-145.34;100.00
5296;BME280;2670;42.720;23.336;2023-06-14T06:20:55;-18091.72;;;-145.34;100.00
5296;BME280;2670;42.720;23.336;2023-06-14T06:23:22;-18091.72;;;-145.34;100.00
5296;BME280;2670;42.720;23.336;2023-06-14T06:25:49;-18091.72;;;-145.34;100.00
5296;BME280;2670;42.720;23.336;2023-06-14T06:28:16;-18091.72;;;-145.34;100.00
5296;BME280;2670;42.720;23.336;2023-06-14T06:30:42;-18091.72;;;-145.34;100.00
5296;BME280;2670;42.720;23.336;2023-06-14T06:33:10;-18091.72;;;-145.34;100.00
5296;BME280;2670;42.720;23.336;2023-06-14T06:35:38;-18091.72;;;-145.34;100.00
5296;BME280;2670;42.720;23.336;2023-06-14T06:38:05;-18091.72;;;-145.34;100.00
5296;BME280;2670;42.720;23.336;2023-06-14T06:40:31;-18091.72;;;-145.34;100.00
5296;BME280;2670;42.720;23.336;2023-06-14T06:42:58;-18091.72;;;-145.34;100.00
5296;BME280;2670;42.720;23.336;2023-06-14T06:45:25;-18091.72;;;-145.34;100.00
5296;BME280;2670;42.720;23.336;2023-06-14T06:47:52;-18091.72;;;-145.34;100.00
5296;BME280;2670;42.720;23.336;2023-06-14T06:50:20;-18091.72;;;-145.34;100.00
5296;BME280;2670;42.720;23.336;2023-06-14T06:52:48;-18091.72;;;-145.34;100.00
5296;BME280;2670;42.720;23.336;2023-06-14T06:55:15;-18091.72;;;-145.34;100.00
5296;BME280;2670;42.720;23.336;2023-06-14T06:57:43;-18091.72;;;-145.34;100.00
5296;BME280;2670;42.720;23.336;2023-06-14T07:00:11;-18091.72;;;-145.34;100.00
5296;BME280;2670;42.720;23.336;2023-06-14T07:02:38;-18091.72;;;-145.34;100.00
5296;BME280;2670;42.720;23.336;2023-06-14T07:05:05;-18091.72;;;-145.34;100.00
5296;BME280;2670;42.720;23.336;2023-06-14T07:07:33;-18091.72;;;-145.34;100.00
5296;BME280;2670;42.720;23.336;2023-06-14T07:10:00;-18091.72;;;-145.34;100.00
5296;BME280;2670;42.720;23.336;2023-06-14T07:12:30;-18091.72;;;-145.34;100.00
5296;BME280;2670;42.720;23.336;2023-06-14T07:14:57;-18091.72;;;-145.34;100.00
5296;BME280;2670;42.720;23.336;2023-06-14T07:17:24;-18091.72;;;-145.34;100.00
5296;BME280;2670;42.720;23.336;2023-06-14T07:19:50;-18091.72;;;-145.34;100.00
5296;BME280;2670;42.720;23.336;2023-06-14T07:22:18;-18091.72;;;-145.34;100.00
5296;BME280;2670;42.720;23.336;2023-06-14T07:24:47;-18091.72;;;-145.34;100.00
5296;BME280;2670;42.720;23.336;2023-06-14T07:27:13;-18091.72;;;-145.34;100.00
5296;BME280;2670;42.720;23.336;2023-06-14T07:29:40;-18091.72;;;-145.34;100.00
5296;BME280;2670;42.720;23.336;2023-06-14T07:32:07;-18091.72;;;-145.34;100.00
5296;BME280;2670;42.720;23.336;2023-06-14T07:34:34;-18091.72;;;-145.34;100.00
5296;BME280;2670;42.720;23.336;2023-06-14T07:37:00;-18091.72;;;-145.34;100.00
5296;BME280;2670;42.720;23.336;2023-06-14T07:39:27;-18091.72;;;-145.34;100.00
5296;BME280;2670;42.720;23.336;2023-06-14T07:41:55;-18091.72;;;-145.34;100.00
5296;BME280;2670;42.720;23.336;2023-06-14T07:44:22;-18091.72;;;-145.34;100.00
5296;BME280;2670;42.720;23.336;2023-06-14T07:46:49;-18091.72;;;-145.34;100.00
5296;BME280;2670;42.720;23.336;2023-06-14T07:49:15;-18091.72;;;-145.34;100.00
5296;BME280;2670;42.720;23.336;2023-06-14T07:51:42;-18091.72;;;-145.34;100.00
5296;BME280;2670;42.720;23.336;2023-06-14T07:54:10;-18091.72;;;-145.34;100.00
5296;BME280;2670;42.720;23.336;2023-06-14T07:56:37;-18091.72;;;-145.34;100.00
5296;BME280;2670;42.720;23.336;2023-06-14T07:59:05;-18091.72;;;-145.34;100.00
5296;BME280;2670;42.720;23.336;2023-06-14T08:01:33;-18091.72;;;-145.34;100.00
5296;BME280;2670;42.720;23.336;2023-06-14T08:03:59;-18091.72;;;-145.34;100.00
5296;BME280;2670;42.720;23.336;2023-06-14T08:06:26;-18091.72;;;-145.34;100.00
5296;BME280;2670;42.720;23.336;2023-06-14T08:08:53;-18091.72;;;-145.34;100.00
5296;BME280;2670;42.720;23.336;2023-06-14T08:11:20;-18091.72;;;-145.34;100.00
5296;BME280;2670;42.720;23.336;2023-06-14T08:13:49;-18091.72;;;-145.34;100.00
5296;BME280;2670;42.720;23.336;2023-06-14T08:16:17;-18091.72;;;-145.34;100.00
5296;BME280;2670;42.720;23.336;2023-06-14T08:18:44;-18091.72;;;-145.34;100.00
5296;BME280;2670;42.720;23.336;2023-06-14T08:21:11;-18091.72;;;-145.34;100.00
5296;BME280;2670;42.720;23.336;2023-06-14T08:23:39;-18091.72;;;-145.34;100.00
5296;BME280;2670;42.720;23.336;2023-06-14T08:26:06;-18091.72;;;-145.34;100.00
5296;BME280;2670;42.720;23.336;2023-06-14T08:28:32;-18091.72;;;-145.34;100.00
5296;BME280;2670;42.720;23.336;2023-06-14T08:30:59;-18091.72;;;-145.34;100.00
5296;BME280;2670;42.720;23.336;2023-06-14T08:33:28;-18091.72;;;-145.34;100.00
5296;BME280;2670;42.720;23.336;2023-06-14T08:35:55;-18091.72;;;-145.34;100.00
5296;BME280;2670;42.720;23.336;2023-06-14T08:38:21;-18091.72;;;-145.34;100.00
5296;BME280;2670;42.720;23.336;2023-06-14T08:40:50;-18091.72;;;-145.34;100.00
5296;BME280;2670;42.720;23.336;2023-06-14T08:43:17;-18091.72;;;-145.34;100.00
5296;BME280;2670;42.720;23.336;2023-06-14T08:45:46;-18091.72;;;-145.34;100.00
5296;BME280;2670;42.720;23.336;2023-06-14T08:48:16;-18091.72;;;-145.34;100.00
5296;BME280;2670;42.720;23.336;2023-06-14T08:50:48;-18091.72;;;-145.34;99.83
5296;BME280;2670;42.720;23.336;2023-06-14T08:53:15;-18091.72;;;-145.34;100.00
5296;BME280;2670;42.720;23.336;2023-06-14T08:55:45;-18091.72;;;-145.34;100.00
5296;BME280;2670;42.720;23.336;2023-06-14T08:58:13;-18091.72;;;-145.34;99.28
5296;BME280;2670;42.720;23.336;2023-06-14T09:00:40;-18091.72;;;-145.34;98.56
5296;BME280;2670;42.720;23.336;2023-06-14T09:03:08;-18091.72;;;-145.34;96.88
5296;BME280;2670;42.720;23.336;2023-06-14T09:05:39;-18091.72;;;-145.34;98.03
5296;BME280;2670;42.720;23.336;2023-06-14T09:08:07;-18091.72;;;-145.34;100.00
5296;BME280;2670;42.720;23.336;2023-06-14T09:10:36;-18091.72;;;-145.34;100.00
5296;BME280;2670;42.720;23.336;2023-06-14T09:13:03;-18091.72;;;-145.34;99.24
5296;BME280;2670;42.720;23.336;2023-06-14T09:15:30;-18091.72;;;-145.34;98.76
5296;BME280;2670;42.720;23.336;2023-06-14T09:17:57;-18091.72;;;-145.34;99.46
5296;BME280;2670;42.720;23.336;2023-06-14T09:20:24;-18091.72;;;-145.34;99.42
5296;BME280;2670;42.720;23.336;2023-06-14T09:22:52;-18091.72;;;-145.34;98.66
5296;BME280;2670;42.720;23.336;2023-06-14T09:25:21;-18091.72;;;-145.34;99.55
5296;BME280;2670;42.720;23.336;2023-06-14T09:27:48;-18091.72;;;-145.34;99.05
5296;BME280;2670;42.720;23.336;2023-06-14T09:30:15;-18091.72;;;-145.34;98.04
5296;BME280;2670;42.720;23.336;2023-06-14T09:32:41;-18091.72;;;-145.34;97.96
5296;BME280;2670;42.720;23.336;2023-06-14T09:35:09;-18091.72;;;-145.34;98.34
5296;BME280;2670;42.720;23.336;2023-06-14T09:37:35;-18091.72;;;-145.34;97.35
5296;BME280;2670;42.720;23.336;2023-06-14T09:40:05;-18091.72;;;-145.34;97.59
5296;BME280;2670;42.720;23.336;2023-06-14T09:42:33;-18091.72;;;-145.34;96.90
5296;BME280;2670;42.720;23.336;2023-06-14T09:45:02;-18091.72;;;-145.34;97.18
5296;BME280;2670;42.720;23.336;2023-06-14T09:47:29;-18091.72;;;-145.34;97.53
5296;BME280;2670;42.720;23.336;2023-06-14T09:49:55;-18091.72;;;-145.34;94.37
5296;BME280;2670;42.720;23.336;2023-06-14T09:52:22;-18091.72;;;-145.34;94.21
5296;BME280;2670;42.720;23.336;2023-06-14T09:54:49;-18091.72;;;-145.34;92.67
5296;BME280;2670;42.720;23.336;2023-06-14T09:57:20;-18091.72;;;-145.34;94.80
5296;BME280;2670;42.720;23.336;2023-06-14T09:59:52;-18091.72;;;-145.34;96.27
5296;BME280;2670;42.720;23.336;2023-06-14T10:02:24;-18091.72;;;-145.34;93.73
5296;BME280;2670;42.720;23.336;2023-06-14T10:04:57;-18091.72;;;-145.34;93.73
5296;BME280;2670;42.720;23.336;2023-06-14T10:07:26;-18091.72;;;-145.34;93.78
5296;BME280;2670;42.720;23.336;2023-06-14T10:09:55;-18091.72;;;-145.34;91.24
5296;BME280;2670;42.720;23.336;2023-06-14T10:12:23;-18091.72;;;-145.34;90.85
5296;BME280;2670;42.720;23.336;2023-06-14T10:14:51;-18091.72;;;-145.34;91.29
5296;BME280;2670;42.720;23.336;2023-06-14T10:17:24;-18091.72;;;-145.34;92.92
5296;BME280;2670;42.720;23.336;2023-06-14T10:19:55;-18091.72;;;-145.34;91.52
5296;BME280;2670;42.720;23.336;2023-06-14T10:22:28;-18091.72;;;-145.34;93.33
5296;BME280;2670;42.720;23.336;2023-06-14T10:24:57;-18091.72;;;-145.34;91.28
5296;BME280;2670;42.720;23.336;2023-06-14T10:27:23;-18091.72;;;-145.34;90.05
5296;BME280;2670;42.720;23.336;2023-06-14T10:30:06;-18091.72;;;-145.34;87.32
5296;BME280;2670;42.720;23.336;2023-06-14T10:32:33;-18091.72;;;-145.34;87.33
5296;BME280;2670;42.720;23.336;2023-06-14T10:35:04;-18091.72;;;-145.34;89.33
5296;BME280;2670;42.720;23.336;2023-06-14T10:37:31;-18091.72;;;-145.34;86.61
5296;BME280;2670;42.720;23.336;2023-06-14T10:39:58;-18091.72;;;-145.34;85.14
5296;BME280;2670;42.720;23.336;2023-06-14T10:42:28;-18091.72;;;-145.34;83.80
5296;BME280;2670;42.720;23.336;2023-06-14T10:44:58;-18091.72;;;-145.34;85.35
5296;BME280;2670;42.720;23.336;2023-06-14T10:47:31;-18091.72;;;-145.34;85.73
5296;BME280;2670;42.720;23.336;2023-06-14T10:50:04;-18091.72;;;-145.34;84.68
5296;BME280;2670;42.720;23.336;2023-06-14T10:52:33;-18091.72;;;-145.34;86.28
5296;BME280;2670;42.720;23.336;2023-06-14T10:55:09;-18091.72;;;-145.34;85.72
5296;BME280;2670;42.720;23.336;2023-06-14T10:57:39;-18091.72;;;-145.34;86.17
5296;BME280;2670;42.720;23.336;2023-06-14T11:00:07;-18091.72;;;-145.34;88.48
5296;BME280;2670;42.720;23.336;2023-06-14T11:02:53;-18091.72;;;-145.34;82.97
5296;BME280;2670;42.720;23.336;2023-06-14T11:05:27;-18091.72;;;-145.34;82.46
5296;BME280;2670;42.720;23.336;2023-06-14T11:08:48;-18091.72;;;-145.34;84.96
5296;BME280;2670;42.720;23.336;2023-06-14T11:11:22;-18091.72;;;-145.34;81.38
5296;BME280;2670;42.720;23.336;2023-06-14T11:13:51;-18091.72;;;-145.34;80.48
5296;BME280;2670;42.720;23.336;2023-06-14T11:16:18;-18091.72;;;-145.34;81.47
5296;BME280;2670;42.720;23.336;2023-06-14T11:18:46;-18091.72;;;-145.34;80.50
5296;BME280;2670;42.720;23.336;2023-06-14T11:21:16;-18091.72;;;-145.34;81.69
5296;BME280;2670;42.720;23.336;2023-06-14T11:23:49;-18091.72;;;-145.34;82.58
5296;BME280;2670;42.720;23.336;2023-06-14T11:26:16;-18091.72;;;-145.34;83.81
5296;BME280;2670;42.720;23.336;2023-06-14T11:28:55;-18091.72;;;-145.34;82.08
5296;BME280;2670;42.720;23.336;2023-06-14T11:31:22;-18091.72;;;-145.34;77.29
5296;BME280;2670;42.720;23.336;2023-06-14T11:33:53;-18091.72;;;-145.34;72.93
5296;BME280;2670;42.720;23.336;2023-06-14T11:36:20;-18091.72;;;-145.34;69.95
5296;BME280;2670;42.720;23.336;2023-06-14T11:38:47;-18091.72;;;-145.34;67.13
5296;BME280;2670;42.720;23.336;2023-06-14T11:41:13;-18091.72;;;-145.34;64.43
5296;BME280;2670;42.720;23.336;2023-06-14T11:43:40;-18091.72;;;-145.34;65.19
5296;BME280;2670;42.720;23.336;2023-06-14T11:46:12;-18091.72;;;-145.34;67.20
5296;BME280;2670;42.720;23.336;2023-06-14T11:48:42;-18091.72;;;-145.34;67.70
5296;BME280;2670;42.720;23.336;2023-06-14T11:51:10;-18091.72;;;-145.34;66.37
5296;BME280;2670;42.720;23.336;2023-06-14T11:53:37;-18091.72;;;-145.34;64.63
5296;BME280;2670;42.720;23.336;2023-06-14T11:56:04;-18091.72;;;-145.34;63.17
5296;BME280;2670;42.720;23.336;2023-06-14T11:58:31;-18091.72;;;-145.34;66.26
5296;BME280;2670;42.720;23.336;2023-06-14T12:00:58;-18091.72;;;-145.34;65.68
5296;BME280;2670;42.720;23.336;2023-06-14T12:03:25;-18091.72;;;-145.34;66.11
5296;BME280;2670;42.720;23.336;2023-06-14T12:06:04;-18091.72;;;-145.34;64.84
5296;BME280;2670;42.720;23.336;2023-06-14T12:08:34;-18091.72;;;-145.34;64.16
5296;BME280;2670;42.720;23.336;2023-06-14T12:11:05;-18091.72;;;-145.34;65.39
5296;BME280;2670;42.720;23.336;2023-06-14T12:13:34;-18091.72;;;-145.34;63.27
5296;BME280;2670;42.720;23.336;2023-06-14T12:16:01;-18091.72;;;-145.34;60.67
5296;BME280;2670;42.720;23.336;2023-06-14T12:18:33;-18091.72;;;-145.34;62.13
5296;BME280;2670;42.720;23.336;2023-06-14T12:21:01;-18091.72;;;-145.34;63.06
5296;BME280;2670;42.720;23.336;2023-06-14T12:23:42;-18091.72;;;-145.34;60.43
5296;BME280;2670;42.720;23.336;2023-06-14T12:26:09;-18091.72;;;-145.34;59.64
5296;BME280;2670;42.720;23.336;2023-06-14T12:28:35;-18091.72;;;-145.34;59.76
5296;BME280;2670;42.720;23.336;2023-06-14T12:31:02;-18091.72;;;-145.34;62.25
5296;BME280;2670;42.720;23.336;2023-06-14T12:33:30;-18091.72;;;-145.34;61.79
5296;BME280;2670;42.720;23.336;2023-06-14T12:35:57;-18091.72;;;-145.34;60.97
5296;BME280;2670;42.720;23.336;2023-06-14T12:38:24;-18091.72;;;-145.34;59.60